sensor_id;sensor_type;location;lat;lon;timestamp;pressure;altitude;pressure_sealevel;temperature;humidity
59168;BME280;44948;55.046;73.266;2023-02-28T00:00:06;100116.94;;;-3.96;84.56
59168;BME280;44948;55.046;73.266;2023-02-28T00:03:15;100116.06;;;-3.95;84.40
59168;BME280;44948;55.046;73.266;2023-02-28T00:06:28;100118.66;;;-3.98;84.47
59168;BME280;44948;55.046;73.266;2023-02-28T00:09:30;100076.25;;;-4.19;84.34
59168;BME280;44948;55.046;73.266;2023-02-28T00:12:41;100117.00;;;-4.01;84.43
59168;BME280;44948;55.046;73.266;2023-02-28T00:15:43;100118.56;;;-3.92;84.39
59168;BME280;44948;55.046;73.266;2023-02-28T00:18:47;100105.09;;;-4.05;84.63
59168;BME280;44948;55.046;73.266;2023-02-28T00:21:50;100087.34;;;-4.17;84.76
59168;BME280;44948;55.046;73.266;2023-02-28T00:24:58;100113.59;;;-4.01;85.04
59168;BME280;44948;55.046;73.266;2023-02-28T00:28:00;100099.06;;;-4.03;84.57
59168;BME280;44948;55.046;73.266;2023-02-28T00:31:03;100099.06;;;-4.03;85.18
59168;BME280;44948;55.046;73.266;2023-02-28T00:34:08;100097.31;;;-3.99;84.84
59168;BME280;44948;55.046;73.266;2023-02-28T00:37:11;100091.25;;;-3.93;84.84
59168;BME280;44948;55.046;73.266;2023-02-28T00:40:16;100094.69;;;-3.94;85.01
59168;BME280;44948;55.046;73.266;2023-02-28T00:43:19;100091.22;;;-3.90;85.17
59168;BME280;44948;55.046;73.266;2023-02-28T00:46:27;100079.28;;;-3.91;85.09
59168;BME280;44948;55.046;73.266;2023-02-28T00:49:39;100075.03;;;-3.94;84.93
59168;BME280;44948;55.046;73.266;2023-02-28T00:52:47;100076.78;;;-3.96;84.88
59168;BME280;44948;55.046;73.266;2023-02-28T00:55:50;100078.56;;;-3.99;84.94
59168;BME280;44948;55.046;73.266;2023-02-28T00:58:53;100077.69;;;-3.98;84.76
59168;BME280;44948;55.046;73.266;2023-02-28T01:01:55;100063.19;;;-3.99;84.88
59168;BME280;44948;55.046;73.266;2023-02-28T01:04:57;100058.94;;;-4.00;84.92
59168;BME280;44948;55.046;73.266;2023-02-28T01:08:00;100065.75;;;-4.03;85.08
59168;BME280;44948;55.046;73.266;2023-02-28T01:11:08;100061.53;;;-4.05;84.82
59168;BME280;44948;55.046;73.266;2023-02-28T01:14:16;100050.41;;;-4.03;84.81
59168;BME280;44948;55.046;73.266;2023-02-28T01:17:21;100058.06;;;-4.03;84.89
59168;BME280;44948;55.046;73.266;2023-02-28T01:20:25;100042.75;;;-4.06;84.90
59168;BME280;44948;55.046;73.266;2023-02-28T01:23:28;100029.94;;;-4.04;84.42
59168;BME280;44948;55.046;73.266;2023-02-28T01:26:30;100045.16;;;-3.93;84.52
59168;BME280;44948;55.046;73.266;2023-02-28T01:29:33;100027.25;;;-3.96;84.13
59168;BME280;44948;55.046;73.266;2023-02-28T01:32:36;100041.72;;;-3.92;84.47
59168;BME280;44948;55.046;73.266;2023-02-28T01:35:38;100027.19;;;-3.92;84.27
59168;BME280;44948;55.046;73.266;2023-02-28T01:38:41;100029.78;;;-3.93;84.32
59168;BME280;44948;55.046;73.266;2023-02-28T01:41:54;100029.72;;;-3.90;84.27
59168;BME280;44948;55.046;73.266;2023-02-28T01:48:36;100022.91;;;-3.91;84.41
59168;BME280;44948;55.046;73.266;2023-02-28T01:51:49;100017.88;;;-3.96;84.21
59168;BME280;44948;55.046;73.266;2023-02-28T01:54:59;100000.72;;;-3.92;83.89
59168;BME280;44948;55.046;73.266;2023-02-28T01:58:04;100014.25;;;-3.84;83.78
59168;BME280;44948;55.046;73.266;2023-02-28T02:01:08;100012.63;;;-3.90;83.71
59168;BME280;44948;55.046;73.266;2023-02-28T02:04:15;100007.94;;;-4.17;83.78
59168;BME280;44948;55.046;73.266;2023-02-28T02:07:25;100002.53;;;-3.97;83.63
59168;BME280;44948;55.046;73.266;2023-02-28T02:10:45;99999.03;;;-3.93;83.70
59168;BME280;44948;55.046;73.266;2023-02-28T02:14:30;99994.00;;;-3.99;83.14
59168;BME280;44948;55.046;73.266;2023-02-28T02:17:41;99996.56;;;-3.98;83.08
59168;BME280;44948;55.046;73.266;2023-02-28T02:41:16;99985.38;;;-3.94;83.08
59168;BME280;44948;55.046;73.266;2023-02-28T02:44:24;99958.91;;;-3.94;82.66
59168;BME280;44948;55.046;73.266;2023-02-28T02:47:35;99968.22;;;-3.90;83.09
59168;BME280;44948;55.046;73.266;2023-02-28T02:50:58;99961.28;;;-3.82;82.86
59168;BME280;44948;55.046;73.266;2023-02-28T02:54:05;99954.47;;;-3.83;83.26
59168;BME280;44948;55.046;73.266;2023-02-28T02:57:25;99951.00;;;-3.81;82.73
59168;BME280;44948;55.046;73.266;2023-02-28T03:00:38;99944.22;;;-3.83;83.07
59168;BME280;44948;55.046;73.266;2023-02-28T03:04:04;99927.84;;;-3.76;82.94
59168;BME280;44948;55.046;73.266;2023-02-28T03:07:08;99926.13;;;-3.76;82.40
59168;BME280;44948;55.046;73.266;2023-02-28T03:10:48;99924.66;;;-3.89;82.42
59168;BME280;44948;55.046;73.266;2023-02-28T03:14:08;99930.34;;;-3.73;82.72
59168;BME280;44948;55.046;73.266;2023-02-28T03:17:53;99932.16;;;-3.78;82.44
59168;BME280;44948;55.046;73.266;2023-02-28T03:21:23;99924.41;;;-3.75;82.52
59168;BME280;44948;55.046;73.266;2023-02-28T03:25:05;99934.91;;;-3.89;82.60
59168;BME280;44948;55.046;73.266;2023-02-28T03:28:30;99931.47;;;-3.88;82.56
59168;BME280;44948;55.046;73.266;2023-02-28T03:31:39;99921.91;;;-3.78;82.76
59168;BME280;44948;55.046;73.266;2023-02-28T03:34:50;99902.41;;;-3.87;82.41
59168;BME280;44948;55.046;73.266;2023-02-28T03:38:35;99908.34;;;-3.83;82.40
59168;BME280;44948;55.046;73.266;2023-02-28T03:41:42;99909.28;;;-3.89;82.42
59168;BME280;44948;55.046;73.266;2023-02-28T03:44:53;99906.69;;;-3.87;82.55
59168;BME280;44948;55.046;73.266;2023-02-28T03:48:03;99899.22;;;-3.99;82.90
59168;BME280;44948;55.046;73.266;2023-02-28T03:51:19;99883.78;;;-3.95;83.03
59168;BME280;44948;55.046;73.266;2023-02-28T03:54:40;99889.69;;;-3.91;82.89
59168;BME280;44948;55.046;73.266;2023-02-28T04:01:25;99871.50;;;-3.78;82.86
59168;BME280;44948;55.046;73.266;2023-02-28T04:04:30;99862.06;;;-3.76;82.91
59168;BME280;44948;55.046;73.266;2023-02-28T04:07:33;99875.59;;;-3.69;82.91
59168;BME280;44948;55.046;73.266;2023-02-28T04:10:35;99861.81;;;-3.62;82.69
59168;BME280;44948;55.046;73.266;2023-02-28T04:13:38;99860.81;;;-3.56;82.54
59168;BME280;44948;55.046;73.266;2023-02-28T04:16:47;99846.28;;;-3.56;82.18
59168;BME280;44948;55.046;73.266;2023-02-28T04:19:55;99853.06;;;-3.52;82.05
59168;BME280;44948;55.046;73.266;2023-02-28T04:22:59;99810.13;;;-3.84;81.78
59168;BME280;44948;55.046;73.266;2023-02-28T04:26:06;99847.25;;;-3.61;82.08
59168;BME280;44948;55.046;73.266;2023-02-28T04:32:38;99850.34;;;-3.44;82.05
59168;BME280;44948;55.046;73.266;2023-02-28T04:35:41;99843.56;;;-3.47;81.44
59168;BME280;44948;55.046;73.266;2023-02-28T04:38:53;99841.78;;;-3.45;81.55
59168;BME280;44948;55.046;73.266;2023-02-28T04:41:56;99820.66;;;-3.56;81.28
59168;BME280;44948;55.046;73.266;2023-02-28T04:44:58;99841.69;;;-3.40;81.43
59168;BME280;44948;55.046;73.266;2023-02-28T04:48:02;99832.91;;;-3.28;81.20
59168;BME280;44948;55.046;73.266;2023-02-28T04:51:08;99824.22;;;-3.23;80.96
59168;BME280;44948;55.046;73.266;2023-02-28T04:54:11;99825.97;;;-3.25;80.69
59168;BME280;44948;55.046;73.266;2023-02-28T04:57:20;99816.72;;;-3.30;80.53
59168;BME280;44948;55.046;73.266;2023-02-28T05:00:22;99817.41;;;-3.24;80.71
59168;BME280;44948;55.046;73.266;2023-02-28T05:03:24;99814.69;;;-3.16;80.83
59168;BME280;44948;55.046;73.266;2023-02-28T05:06:28;99816.34;;;-3.14;81.18
59168;BME280;44948;55.046;73.266;2023-02-28T05:09:31;99821.28;;;-3.06;80.90
59168;BME280;44948;55.046;73.266;2023-02-28T05:12:35;99808.53;;;-3.09;80.45
59168;BME280;44948;55.046;73.266;2023-02-28T05:15:37;99805.91;;;-3.06;80.02
59168;BME280;44948;55.046;73.266;2023-02-28T05:18:40;99782.22;;;-3.17;80.42
59168;BME280;44948;55.046;73.266;2023-02-28T05:21:51;99788.00;;;-3.09;80.41
59168;BME280;44948;55.046;73.266;2023-02-28T05:24:55;99788.06;;;-3.10;80.38
59168;BME280;44948;55.046;73.266;2023-02-28T05:27:57;99779.63;;;-3.16;80.27
59168;BME280;44948;55.046;73.266;2023-02-28T05:31:07;99774.31;;;-3.08;80.38
59168;BME280;44948;55.046;73.266;2023-02-28T05:34:22;99768.38;;;-3.10;80.08
59168;BME280;44948;55.046;73.266;2023-02-28T05:37:24;99766.72;;;-3.13;80.22
59168;BME280;44948;55.046;73.266;2023-02-28T05:40:38;99745.25;;;-3.08;80.03
59168;BME280;44948;55.046;73.266;2023-02-28T05:43:42;99760.34;;;-2.96;80.05
59168;BME280;44948;55.046;73.266;2023-02-28T05:46:45;99749.00;;;-2.88;79.96
59168;BME280;44948;55.046;73.266;2023-02-28T05:49:48;99741.41;;;-2.91;79.55
59168;BME280;44948;55.046;73.266;2023-02-28T05:52:55;99755.19;;;-2.95;79.36
59168;BME280;44948;55.046;73.266;2023-02-28T05:55:59;99737.66;;;-3.13;79.46
59168;BME280;44948;55.046;73.266;2023-02-28T05:59:04;99744.34;;;-3.06;79.44
59168;BME280;44948;55.046;73.266;2023-02-28T06:02:12;99727.22;;;-3.05;79.38
59168;BME280;44948;55.046;73.266;2023-02-28T06:05:16;99728.84;;;-3.03;79.33
59168;BME280;44948;55.046;73.266;2023-02-28T06:08:20;99712.88;;;-3.13;79.32
59168;BME280;44948;55.046;73.266;2023-02-28T06:11:22;99707.94;;;-3.22;79.16
59168;BME280;44948;55.046;73.266;2023-02-28T06:14:28;99691.63;;;-3.19;79.68
59168;BME280;44948;55.046;73.266;2023-02-28T06:17:38;99661.09;;;-3.28;79.51
59168;BME280;44948;55.046;73.266;2023-02-28T06:20:41;99684.34;;;-3.02;79.32
59168;BME280;44948;55.046;73.266;2023-02-28T06:23:44;99681.75;;;-2.99;79.49
59168;BME280;44948;55.046;73.266;2023-02-28T06:26:47;99671.22;;;-2.90;79.14
59168;BME280;44948;55.046;73.266;2023-02-28T06:29:54;99680.94;;;-2.67;78.89
59168;BME280;44948;55.046;73.266;2023-02-28T06:32:57;99663.97;;;-2.74;79.09
59168;BME280;44948;55.046;73.266;2023-02-28T06:36:11;99682.78;;;-2.73;78.84
59168;BME280;44948;55.046;73.266;2023-02-28T06:39:15;99680.47;;;-2.83;79.06
59168;BME280;44948;55.046;73.266;2023-02-28T06:42:30;99665.97;;;-2.84;79.56
59168;BME280;44948;55.046;73.266;2023-02-28T06:45:33;99664.03;;;-2.75;79.54
59168;BME280;44948;55.046;73.266;2023-02-28T06:48:40;99659.72;;;-2.75;79.46
59168;BME280;44948;55.046;73.266;2023-02-28T06:51:44;99640.88;;;-2.74;79.90
59168;BME280;44948;55.046;73.266;2023-02-28T06:54:47;99647.50;;;-2.65;79.73
59168;BME280;44948;55.046;73.266;2023-02-28T06:58:01;99638.16;;;-2.68;79.47
59168;BME280;44948;55.046;73.266;2023-02-28T07:01:04;99642.25;;;-2.61;79.31
59168;BME280;44948;55.046;73.266;2023-02-28T07:04:07;99631.94;;;-2.59;79.58
59168;BME280;44948;55.046;73.266;2023-02-28T07:07:09;99637.72;;;-2.53;79.21
59168;BME280;44948;55.046;73.266;2023-02-28T07:10:12;99630.03;;;-2.53;79.53
59168;BME280;44948;55.046;73.266;2023-02-28T07:13:15;99627.50;;;-2.54;78.97
59168;BME280;44948;55.046;73.266;2023-02-28T07:16:18;99619.25;;;-2.34;79.14
59168;BME280;44948;55.046;73.266;2023-02-28T07:19:20;99606.38;;;-2.33;78.73
59168;BME280;44948;55.046;73.266;2023-02-28T07:22:28;99593.44;;;-2.30;78.49
59168;BME280;44948;55.046;73.266;2023-02-28T07:25:31;99583.06;;;-2.27;78.60
59168;BME280;44948;55.046;73.266;2023-02-28T07:28:38;99607.72;;;-2.21;77.90
59168;BME280;44948;55.046;73.266;2023-02-28T07:31:40;99594.09;;;-2.23;78.17
59168;BME280;44948;55.046;73.266;2023-02-28T07:34:43;99597.63;;;-2.27;78.13
59168;BME280;44948;55.046;73.266;2023-02-28T07:37:50;99602.06;;;-2.32;78.29
59168;BME280;44948;55.046;73.266;2023-02-28T07:40:58;99577.78;;;-2.52;78.32
59168;BME280;44948;55.046;73.266;2023-02-28T07:44:01;99575.25;;;-2.53;78.49
59168;BME280;44948;55.046;73.266;2023-02-28T07:47:05;99576.78;;;-2.46;78.42
59168;BME280;44948;55.046;73.266;2023-02-28T07:50:10;99590.31;;;-2.41;78.19
59168;BME280;44948;55.046;73.266;2023-02-28T07:53:13;99575.94;;;-2.46;78.22
59168;BME280;44948;55.046;73.266;2023-02-28T07:56:15;99557.56;;;-2.62;78.25
59168;BME280;44948;55.046;73.266;2023-02-28T07:59:22;99573.53;;;-2.51;78.68
59168;BME280;44948;55.046;73.266;2023-02-28T08:02:25;99572.41;;;-2.42;78.54
59168;BME280;44948;55.046;73.266;2023-02-28T08:05:27;99574.09;;;-2.41;78.36
59168;BME280;44948;55.046;73.266;2023-02-28T08:08:32;99571.81;;;-2.52;78.66
59168;BME280;44948;55.046;73.266;2023-02-28T08:11:37;99558.13;;;-2.51;78.83
59168;BME280;44948;55.046;73.266;2023-02-28T08:14:45;99561.44;;;-2.47;78.99
59168;BME280;44948;55.046;73.266;2023-02-28T08:17:55;99547.84;;;-2.51;78.85
59168;BME280;44948;55.046;73.266;2023-02-28T08:21:06;99542.53;;;-2.45;78.83
59168;BME280;44948;55.046;73.266;2023-02-28T08:24:09;99535.59;;;-2.43;78.88
59168;BME280;44948;55.046;73.266;2023-02-28T08:27:11;99546.13;;;-2.52;79.26
59168;BME280;44948;55.046;73.266;2023-02-28T08:30:15;99531.19;;;-2.67;79.15
59168;BME280;44948;55.046;73.266;2023-02-28T08:33:22;99537.81;;;-2.60;79.87
59168;BME280;44948;55.046;73.266;2023-02-28T08:36:26;99540.16;;;-2.51;79.71
59168;BME280;44948;55.046;73.266;2023-02-28T08:39:34;99529.78;;;-2.48;79.87
59168;BME280;44948;55.046;73.266;2023-02-28T08:42:37;99530.88;;;-2.57;79.84
59168;BME280;44948;55.046;73.266;2023-02-28T08:45:43;99517.94;;;-2.54;80.06
59168;BME280;44948;55.046;73.266;2023-02-28T08:48:45;99502.53;;;-2.54;79.97
59168;BME280;44948;55.046;73.266;2023-02-28T08:51:48;99507.94;;;-2.33;79.97
59168;BME280;44948;55.046;73.266;2023-02-28T08:54:50;99507.78;;;-2.29;79.58
59168;BME280;44948;55.046;73.266;2023-02-28T08:58:02;99505.88;;;-2.22;79.72
59168;BME280;44948;55.046;73.266;2023-02-28T09:01:14;99496.69;;;-2.29;79.44
59168;BME280;44948;55.046;73.266;2023-02-28T09:04:27;99487.25;;;-2.29;79.71
59168;BME280;44948;55.046;73.266;2023-02-28T09:07:32;99478.84;;;-2.34;79.72
59168;BME280;44948;55.046;73.266;2023-02-28T09:10:35;99484.56;;;-2.26;79.86
59168;BME280;44948;55.046;73.266;2023-02-28T09:13:39;99487.34;;;-2.32;79.71
59168;BME280;44948;55.046;73.266;2023-02-28T09:16:41;99483.16;;;-2.36;80.08
59168;BME280;44948;55.046;73.266;2023-02-28T09:19:44;99476.28;;;-2.34;80.08
59168;BME280;44948;55.046;73.266;2023-02-28T09:22:47;99474.44;;;-2.30;80.02
59168;BME280;44948;55.046;73.266;2023-02-28T09:25:52;99460.06;;;-2.36;79.98
59168;BME280;44948;55.046;73.266;2023-02-28T09:28:55;99474.41;;;-2.29;80.39
59168;BME280;44948;55.046;73.266;2023-02-28T09:32:05;99456.47;;;-2.30;80.27
59168;BME280;44948;55.046;73.266;2023-02-28T09:35:10;99454.31;;;-2.16;80.20
59168;BME280;44948;55.046;73.266;2023-02-28T09:38:17;99458.41;;;-2.10;80.32
59168;BME280;44948;55.046;73.266;2023-02-28T09:41:22;99454.38;;;-2.17;80.20
59168;BME280;44948;55.046;73.266;2023-02-28T09:44:37;99448.56;;;-2.24;80.42
59168;BME280;44948;55.046;73.266;2023-02-28T09:47:47;99450.19;;;-2.22;81.09
59168;BME280;44948;55.046;73.266;2023-02-28T09:51:05;99448.06;;;-2.09;80.84
59168;BME280;44948;55.046;73.266;2023-02-28T09:54:21;99442.00;;;-2.06;80.77
59168;BME280;44948;55.046;73.266;2023-02-28T09:57:38;99448.06;;;-2.09;80.76
59168;BME280;44948;55.046;73.266;2023-02-28T10:00:54;99424.78;;;-2.04;81.05
59168;BME280;44948;55.046;73.266;2023-02-28T10:04:16;99433.28;;;-2.02;81.15
59168;BME280;44948;55.046;73.266;2023-02-28T10:10:40;99427.78;;;-2.16;81.69
59168;BME280;44948;55.046;73.266;2023-02-28T10:17:14;99423.78;;;-1.99;82.10
59168;BME280;44948;55.046;73.266;2023-02-28T10:20:20;99430.22;;;-1.87;82.29
59168;BME280;44948;55.046;73.266;2023-02-28T10:23:26;99416.50;;;-2.12;82.47
59168;BME280;44948;55.046;73.266;2023-02-28T10:26:33;99419.78;;;-1.82;82.52
59168;BME280;44948;55.046;73.266;2023-02-28T10:29:49;99410.31;;;-1.80;82.36
59168;BME280;44948;55.046;73.266;2023-02-28T10:33:00;99415.16;;;-1.73;82.36
59168;BME280;44948;55.046;73.266;2023-02-28T10:36:04;99399.97;;;-1.79;82.40
59168;BME280;44948;55.046;73.266;2023-02-28T10:39:36;99413.25;;;-1.68;82.22
59168;BME280;44948;55.046;73.266;2023-02-28T10:42:40;99404.78;;;-1.70;82.75
59168;BME280;44948;55.046;73.266;2023-02-28T10:45:55;99402.97;;;-1.68;82.73
59168;BME280;44948;55.046;73.266;2023-02-28T10:49:04;99402.84;;;-1.63;82.61
59168;BME280;44948;55.046;73.266;2023-02-28T10:52:10;99400.88;;;-1.56;82.33
59168;BME280;44948;55.046;73.266;2023-02-28T10:55:23;99392.38;;;-1.58;82.46
59168;BME280;44948;55.046;73.266;2023-02-28T11:01:53;99396.38;;;-1.50;82.54
59168;BME280;44948;55.046;73.266;2023-02-28T11:04:55;99396.03;;;-1.64;83.20
59168;BME280;44948;55.046;73.266;2023-02-28T11:08:17;99391.97;;;-1.71;83.07
59168;BME280;44948;55.046;73.266;2023-02-28T11:11:26;99397.31;;;-2.02;83.88
59168;BME280;44948;55.046;73.266;2023-02-28T11:14:49;99378.91;;;-1.90;83.92
59168;BME280;44948;55.046;73.266;2023-02-28T11:18:01;99387.13;;;-1.79;84.21
59168;BME280;44948;55.046;73.266;2023-02-28T11:21:18;99385.22;;;-1.74;84.17
59168;BME280;44948;55.046;73.266;2023-02-28T11:24:35;99383.50;;;-1.98;84.89
59168;BME280;44948;55.046;73.266;2023-02-28T11:27:48;99392.00;;;-1.96;85.17
59168;BME280;44948;55.046;73.266;2023-02-28T11:34:25;99393.16;;;-1.80;84.74
59168;BME280;44948;55.046;73.266;2023-02-28T11:37:40;99382.81;;;-1.78;85.13
59168;BME280;44948;55.046;73.266;2023-02-28T11:48:04;99374.00;;;-1.96;86.00
59168;BME280;44948;55.046;73.266;2023-02-28T11:51:18;99383.38;;;-1.95;85.89
59168;BME280;44948;55.046;73.266;2023-02-28T11:54:40;99389.31;;;-1.93;85.84
59168;BME280;44948;55.046;73.266;2023-02-28T12:01:42;99400.19;;;-2.11;86.56
59168;BME280;44948;55.046;73.266;2023-02-28T12:11:24;99391.56;;;-2.09;86.81
59168;BME280;44948;55.046;73.266;2023-02-28T12:15:02;99387.66;;;-2.21;86.19
59168;BME280;44948;55.046;73.266;2023-02-28T12:18:33;99404.84;;;-2.23;86.62
59168;BME280;44948;55.046;73.266;2023-02-28T12:22:00;99403.28;;;-2.27;86.47
59168;BME280;44948;55.046;73.266;2023-02-28T12:28:16;99416.13;;;-2.27;87.08
59168;BME280;44948;55.046;73.266;2023-02-28T12:31:33;99405.88;;;-2.28;86.98
59168;BME280;44948;55.046;73.266;2023-02-28T12:34:55;99395.00;;;-2.36;87.26
59168;BME280;44948;55.046;73.266;2023-02-28T12:38:09;99406.06;;;-2.33;87.21
59168;BME280;44948;55.046;73.266;2023-02-28T12:41:33;99396.56;;;-2.31;86.88
59168;BME280;44948;55.046;73.266;2023-02-28T12:44:51;99391.59;;;-2.37;87.24
59168;BME280;44948;55.046;73.266;2023-02-28T12:48:08;99405.00;;;-2.27;87.12
59168;BME280;44948;55.046;73.266;2023-02-28T12:51:13;99408.31;;;-2.24;87.29
59168;BME280;44948;55.046;73.266;2023-02-28T12:54:44;99410.13;;;-2.27;87.30
59168;BME280;44948;55.046;73.266;2023-02-28T13:08:01;99406.53;;;-2.22;87.33
59168;BME280;44948;55.046;73.266;2023-02-28T13:11:06;99403.28;;;-2.27;87.26
59168;BME280;44948;55.046;73.266;2023-02-28T13:17:29;99405.50;;;-2.16;87.06
59168;BME280;44948;55.046;73.266;2023-02-28T13:20:36;99408.13;;;-2.17;86.90
59168;BME280;44948;55.046;73.266;2023-02-28T13:40:33;99414.28;;;-2.23;86.69
59168;BME280;44948;55.046;73.266;2023-02-28T13:47:15;99420.25;;;-2.23;87.00
59168;BME280;44948;55.046;73.266;2023-02-28T13:53:44;99423.56;;;-2.19;86.42
59168;BME280;44948;55.046;73.266;2023-02-28T13:57:33;99420.56;;;-2.32;86.68
59168;BME280;44948;55.046;73.266;2023-02-28T14:07:54;99423.81;;;-2.27;86.83
59168;BME280;44948;55.046;73.266;2023-02-28T14:11:08;99422.72;;;-2.19;86.58
59168;BME280;44948;55.046;73.266;2023-02-28T14:17:37;99398.53;;;-2.39;86.77
59168;BME280;44948;55.046;73.266;2023-02-28T14:20:54;99433.88;;;-2.21;86.94
59168;BME280;44948;55.046;73.266;2023-02-28T14:34:05;99439.06;;;-2.22;86.71
59168;BME280;44948;55.046;73.266;2023-02-28T14:37:20;99427.78;;;-2.16;87.24
59168;BME280;44948;55.046;73.266;2023-02-28T14:40:30;99432.09;;;-2.18;87.26
59168;BME280;44948;55.046;73.266;2023-02-28T14:43:33;99431.19;;;-2.16;87.25
59168;BME280;44948;55.046;73.266;2023-02-28T14:46:38;99422.72;;;-2.19;87.18
59168;BME280;44948;55.046;73.266;2023-02-28T14:49:44;99415.00;;;-2.19;87.48
59168;BME280;44948;55.046;73.266;2023-02-28T14:52:53;99428.75;;;-2.21;87.51
59168;BME280;44948;55.046;73.266;2023-02-28T14:55:59;99423.44;;;-2.14;87.35
59168;BME280;44948;55.046;73.266;2023-02-28T14:59:01;99423.59;;;-2.21;87.66
59168;BME280;44948;55.046;73.266;2023-02-28T15:02:24;99433.81;;;-2.17;87.46
59168;BME280;44948;55.046;73.266;2023-02-28T15:05:32;99430.44;;;-2.19;87.71
59168;BME280;44948;55.046;73.266;2023-02-28T15:08:35;99428.56;;;-2.14;87.86
59168;BME280;44948;55.046;73.266;2023-02-28T15:11:38;99429.63;;;-2.22;87.91
59168;BME280;44948;55.046;73.266;2023-02-28T15:14:43;99420.69;;;-2.10;88.10
59168;BME280;44948;55.046;73.266;2023-02-28T15:17:50;99423.44;;;-2.14;87.82
59168;BME280;44948;55.046;73.266;2023-02-28T15:20:55;99430.63;;;-2.26;88.08
59168;BME280;44948;55.046;73.266;2023-02-28T15:24:18;99418.56;;;-2.24;87.93
59168;BME280;44948;55.046;73.266;2023-02-28T15:27:28;99426.91;;;-2.15;87.95
59168;BME280;44948;55.046;73.266;2023-02-28T15:30:33;99429.31;;;-2.11;87.91
59168;BME280;44948;55.046;73.266;2023-02-28T15:33:35;99393.84;;;-2.26;87.85
59168;BME280;44948;55.046;73.266;2023-02-28T15:36:38;99431.72;;;-2.06;87.80
59168;BME280;44948;55.046;73.266;2023-02-28T15:39:43;99429.25;;;-2.09;88.10
59168;BME280;44948;55.046;73.266;2023-02-28T15:43:05;99423.44;;;-2.14;87.89
59168;BME280;44948;55.046;73.266;2023-02-28T15:46:19;99426.63;;;-2.08;87.84
59168;BME280;44948;55.046;73.266;2023-02-28T15:49:22;99416.41;;;-2.09;88.28
59168;BME280;44948;55.046;73.266;2023-02-28T15:52:38;99417.88;;;-2.02;87.80
59168;BME280;44948;55.046;73.266;2023-02-28T15:55:57;99415.28;;;-2.01;87.67
59168;BME280;44948;55.046;73.266;2023-02-28T15:59:07;99424.59;;;-1.98;87.97
59168;BME280;44948;55.046;73.266;2023-02-28T16:02:34;99421.94;;;-1.95;87.47
59168;BME280;44948;55.046;73.266;2023-02-28T16:05:36;99423.78;;;-1.99;87.78
59168;BME280;44948;55.046;73.266;2023-02-28T16:08:39;99430.47;;;-1.95;87.99
59168;BME280;44948;55.046;73.266;2023-02-28T16:11:53;99429.75;;;-1.98;87.37
59168;BME280;44948;55.046;73.266;2023-02-28T16:15:03;99408.41;;;-2.00;87.59
59168;BME280;44948;55.046;73.266;2023-02-28T16:18:11;99420.16;;;-1.93;87.64
59168;BME280;44948;55.046;73.266;2023-02-28T16:21:19;99422.72;;;-1.93;87.81
59168;BME280;44948;55.046;73.266;2023-02-28T16:24:21;99411.06;;;-2.03;87.95
59168;BME280;44948;55.046;73.266;2023-02-28T16:27:35;99418.91;;;-2.08;87.98
59168;BME280;44948;55.046;73.266;2023-02-28T16:30:43;99413.94;;;-2.12;88.66
59168;BME280;44948;55.046;73.266;2023-02-28T16:33:54;99415.56;;;-2.10;88.59
59168;BME280;44948;55.046;73.266;2023-02-28T16:37:02;99409.59;;;-2.10;88.73
59168;BME280;44948;55.046;73.266;2023-02-28T16:40:05;99402.03;;;-2.15;88.77
59168;BME280;44948;55.046;73.266;2023-02-28T16:43:15;99402.56;;;-2.05;88.72
59168;BME280;44948;55.046;73.266;2023-02-28T16:46:20;99383.78;;;-2.07;88.70
59168;BME280;44948;55.046;73.266;2023-02-28T16:49:30;99393.56;;;-1.92;88.38
59168;BME280;44948;55.046;73.266;2023-02-28T16:52:32;99393.34;;;-1.86;88.29
59168;BME280;44948;55.046;73.266;2023-02-28T16:55:35;99399.47;;;-1.90;88.36
59168;BME280;44948;55.046;73.266;2023-02-28T16:58:43;99395.13;;;-1.88;88.70
59168;BME280;44948;55.046;73.266;2023-02-28T17:01:56;99378.50;;;-2.03;88.74
59168;BME280;44948;55.046;73.266;2023-02-28T17:05:00;99392.59;;;-1.89;88.83
59168;BME280;44948;55.046;73.266;2023-02-28T17:08:08;99377.25;;;-1.91;88.75
59168;BME280;44948;55.046;73.266;2023-02-28T17:11:21;99391.34;;;-1.78;88.53
59168;BME280;44948;55.046;73.266;2023-02-28T17:14:34;99394.72;;;-1.76;88.44
59168;BME280;44948;55.046;73.266;2023-02-28T17:17:48;99384.06;;;-1.65;88.28
59168;BME280;44948;55.046;73.266;2023-02-28T17:20:50;99385.31;;;-1.77;88.53
59168;BME280;44948;55.046;73.266;2023-02-28T17:23:53;99383.53;;;-1.75;88.51
59168;BME280;44948;55.046;73.266;2023-02-28T17:26:55;99382.53;;;-1.71;88.32
59168;BME280;44948;55.046;73.266;2023-02-28T17:29:58;99369.38;;;-1.62;88.36
59168;BME280;44948;55.046;73.266;2023-02-28T17:33:00;99380.44;;;-1.59;88.26
59168;BME280;44948;55.046;73.266;2023-02-28T17:36:03;99376.06;;;-1.57;88.27
59168;BME280;44948;55.046;73.266;2023-02-28T17:39:17;99370.81;;;-1.54;88.29
59168;BME280;44948;55.046;73.266;2023-02-28T17:42:36;99372.53;;;-1.55;87.98
59168;BME280;44948;55.046;73.266;2023-02-28T17:45:38;99358.97;;;-1.58;87.93
59168;BME280;44948;55.046;73.266;2023-02-28T17:48:52;99374.84;;;-1.47;87.94
59168;BME280;44948;55.046;73.266;2023-02-28T17:51:55;99364.56;;;-1.47;87.50
59168;BME280;44948;55.046;73.266;2023-02-28T17:54:57;99361.22;;;-1.49;87.83
59168;BME280;44948;55.046;73.266;2023-02-28T17:58:03;99353.38;;;-1.46;87.57
59168;BME280;44948;55.046;73.266;2023-02-28T18:01:05;99340.97;;;-1.58;87.85
59168;BME280;44948;55.046;73.266;2023-02-28T18:04:07;99351.84;;;-1.52;87.82
59168;BME280;44948;55.046;73.266;2023-02-28T18:07:15;99351.13;;;-1.55;87.95
59168;BME280;44948;55.046;73.266;2023-02-28T18:10:19;99333.81;;;-1.50;87.97
59168;BME280;44948;55.046;73.266;2023-02-28T18:13:22;99345.56;;;-1.43;87.79
59168;BME280;44948;55.046;73.266;2023-02-28T18:16:25;99335.25;;;-1.43;87.70
59168;BME280;44948;55.046;73.266;2023-02-28T18:19:33;99339.56;;;-1.44;87.37
59168;BME280;44948;55.046;73.266;2023-02-28T18:22:37;99334.31;;;-1.41;87.64
59168;BME280;44948;55.046;73.266;2023-02-28T18:25:39;99334.13;;;-1.36;87.41